Friday, November 16, 2018, 1:11 AM GMT
Back to Local

CWRN, Hart Island Meteorological Aeronautical Presentation System

Location: , , Canada Lat: 45.35
Local Time: 1:11 AM GMT ( 1:11 GMT) Lon: -60.983
Time Zone: GMT Elev: 13 ft

Show me the last for .
Show Coded

Time T Td Feel RH Dir Speed Gust Alt SLP Vis Weather Sky Remarks
2018-11-16 00:00 30 23 18 74 290° 20 - - 30.37 0 Peak wind: 28 mph (25 kts) from 290° at 36 min
2018-11-15 23:00 30 22 16 73 280° 23 - - 30.37 0 Peak wind: 29 mph (26 kts) from 290° at 11 min
2018-11-15 22:00 31 21 17 64 300° 22 31 - 30.38 0 Peak wind: 36 mph (32 kts) from 330° at 28 min
2018-11-15 21:00 31 20 17 61 320° 24 30 - 30.33 0 Peak wind: 36 mph (32 kts) from 310° at 06 min
2018-11-15 20:00 32 22 16 67 320° 29 37 - 30.27 0 Peak wind: 46 mph (40 kts) from 320° at 30 min
2018-11-15 19:00 32 24 15 73 320° 31 39 - 30.27 0 Peak wind: 42 mph (37 kts) from 320° at 14 min
2018-11-15 18:00 31 23 15 69 320° 33 41 - 30.26 0 Peak wind: 51 mph (45 kts) from 310° at 08 min
2018-11-15 17:00 32 23 14 71 320° 39 48 - 30.22 0 Peak wind: 50 mph (44 kts) from 310° at 49 min
2018-11-15 16:00 32 22 14 65 320° 40 49 - 30.21 0 Peak wind: 49 mph (43 kts) from 320° at 51 min
2018-11-15 15:00 31 26 13 82 300° 37 48 - 30.21 0 Peak wind: 48 mph (42 kts) from 300° at 57 min
2018-11-15 14:00 30 27 13 85 300° 37 46 - 30.19 0 Peak wind: 51 mph (45 kts) from 300° at 39 min
2018-11-15 13:00 28 26 9 90 300° 40 51 - 30.17 0 Peak wind: 56 mph (49 kts) from 300° at 27 min
2018-11-15 12:00 27 26 7 92 300° 44 55 - 30.13 0 Peak wind: 55 mph (48 kts) from 300° at 53 min
2018-11-15 11:00 28 25 8 87 290° 43 54 - 30.08 0 Peak wind: 54 mph (47 kts) from 290° at 51 min
Pressure rising rapidly
2018-11-15 10:00 29 25 10 86 290° 39 51 - 30.02 0 Peak wind: 55 mph (48 kts) from 300° at 17 min
2018-11-15 09:00 29 24 9 81 290° 44 54 - 29.99 0 Peak wind: 58 mph (51 kts) from 300° at 25 min
2018-11-15 08:00 28 21 8 75 290° 44 54 - 29.96 0 Peak wind: 58 mph (51 kts) from 290° at 10 min
2018-11-15 07:00 29 21 10 71 290° 44 55 - 29.92 0 Peak wind: 63 mph (55 kts) from 290° at 18 min
2018-11-15 06:00 27 21 6 77 290° 47 60 - 29.87 0 Peak wind: 62 mph (54 kts) from 290° at 38 min
2018-11-15 05:00 26 19 4 73 290° 48 62 - 29.84 0 Peak wind: 62 mph (54 kts) from 290° at 58 min
2018-11-15 04:00 25 18 3 73 290° 44 63 - 29.80 0 Peak wind: 63 mph (55 kts) from 300° at 59 min
2018-11-15 03:00 24 16 1 71 290° 46 60 - 29.77 0 Peak wind: 62 mph (54 kts) from 290° at 47 min
2018-11-15 02:00 24 17 3 75 280° 38 51 - 29.75 0 Peak wind: 50 mph (44 kts) from 280° at 58 min

Support USWX by starting your Amazon purchase here.